sensor_id;sensor_type;location;lat;lon;timestamp;temperature;humidity
19561;DHT22;9927;47.792;10.616;2022-10-16T03:02:48;12.20;99.90
19561;DHT22;9927;47.792;10.616;2022-10-16T03:05:16;12.30;99.90
19561;DHT22;9927;47.792;10.616;2022-10-16T03:07:43;12.30;99.90
19561;DHT22;9927;47.792;10.616;2022-10-16T03:10:10;12.40;99.90
19561;DHT22;9927;47.792;10.616;2022-10-16T03:12:37;12.40;99.90
19561;DHT22;9927;47.792;10.616;2022-10-16T03:15:05;12.40;99.90
19561;DHT22;9927;47.792;10.616;2022-10-16T03:17:33;12.40;99.90
19561;DHT22;9927;47.792;10.616;2022-10-16T03:20:01;12.40;99.90
19561;DHT22;9927;47.792;10.616;2022-10-16T03:22:29;12.40;99.90
19561;DHT22;9927;47.792;10.616;2022-10-16T03:24:56;12.40;99.90
19561;DHT22;9927;47.792;10.616;2022-10-16T03:27:23;12.50;99.90
19561;DHT22;9927;47.792;10.616;2022-10-16T03:29:51;12.50;99.90
19561;DHT22;9927;47.792;10.616;2022-10-16T03:32:18;12.50;99.90
19561;DHT22;9927;47.792;10.616;2022-10-16T03:34:46;12.60;99.90
19561;DHT22;9927;47.792;10.616;2022-10-16T03:37:14;12.50;99.90
19561;DHT22;9927;47.792;10.616;2022-10-16T03:39:41;12.50;99.90
19561;DHT22;9927;47.792;10.616;2022-10-16T03:42:08;12.40;99.90
19561;DHT22;9927;47.792;10.616;2022-10-16T03:44:35;12.30;99.90
19561;DHT22;9927;47.792;10.616;2022-10-16T03:47:02;12.30;99.90
19561;DHT22;9927;47.792;10.616;2022-10-16T03:49:29;12.30;99.90
19561;DHT22;9927;47.792;10.616;2022-10-16T03:51:57;12.50;99.90
19561;DHT22;9927;47.792;10.616;2022-10-16T03:54:24;12.50;99.90
19561;DHT22;9927;47.792;10.616;2022-10-16T03:56:51;12.50;99.90
19561;DHT22;9927;47.792;10.616;2022-10-16T03:59:18;12.60;99.90
19561;DHT22;9927;47.792;10.616;2022-10-16T04:01:45;12.50;99.90
19561;DHT22;9927;47.792;10.616;2022-10-16T04:04:12;12.40;99.90
19561;DHT22;9927;47.792;10.616;2022-10-16T04:06:39;12.40;99.90
19561;DHT22;9927;47.792;10.616;2022-10-16T04:09:06;12.50;99.90
19561;DHT22;9927;47.792;10.616;2022-10-16T04:11:34;12.60;99.90
19561;DHT22;9927;47.792;10.616;2022-10-16T04:14:01;12.60;99.90
19561;DHT22;9927;47.792;10.616;2022-10-16T04:16:28;12.60;99.90
19561;DHT22;9927;47.792;10.616;2022-10-16T04:18:55;12.60;99.90
19561;DHT22;9927;47.792;10.616;2022-10-16T04:21:22;12.70;99.90
19561;DHT22;9927;47.792;10.616;2022-10-16T04:23:49;12.70;99.90
19561;DHT22;9927;47.792;10.616;2022-10-16T04:26:16;12.70;99.90
19561;DHT22;9927;47.792;10.616;2022-10-16T04:28:44;12.70;99.90
19561;DHT22;9927;47.792;10.616;2022-10-16T04:31:11;12.80;99.90
19561;DHT22;9927;47.792;10.616;2022-10-16T04:33:38;12.70;99.90
19561;DHT22;9927;47.792;10.616;2022-10-16T04:36:05;12.60;99.90
19561;DHT22;9927;47.792;10.616;2022-10-16T04:38:32;12.60;99.90
19561;DHT22;9927;47.792;10.616;2022-10-16T04:41:00;12.60;99.90
19561;DHT22;9927;47.792;10.616;2022-10-16T04:43:27;12.50;99.90
19561;DHT22;9927;47.792;10.616;2022-10-16T04:46:00;12.50;99.90
19561;DHT22;9927;47.792;10.616;2022-10-16T04:48:27;12.50;99.90
19561;DHT22;9927;47.792;10.616;2022-10-16T04:50:54;12.50;99.90
19561;DHT22;9927;47.792;10.616;2022-10-16T04:53:22;12.50;99.90
19561;DHT22;9927;47.792;10.616;2022-10-16T04:55:49;12.50;99.90
19561;DHT22;9927;47.792;10.616;2022-10-16T04:58:17;12.70;99.90
19561;DHT22;9927;47.792;10.616;2022-10-16T05:00:44;12.60;99.90
19561;DHT22;9927;47.792;10.616;2022-10-16T05:03:13;12.70;99.90
19561;DHT22;9927;47.792;10.616;2022-10-16T05:05:44;12.70;99.90
19561;DHT22;9927;47.792;10.616;2022-10-16T05:08:13;12.70;99.90
19561;DHT22;9927;47.792;10.616;2022-10-16T05:10:44;12.70;99.90
19561;DHT22;9927;47.792;10.616;2022-10-16T05:13:11;12.80;99.90
19561;DHT22;9927;47.792;10.616;2022-10-16T05:15:39;12.80;99.90
19561;DHT22;9927;47.792;10.616;2022-10-16T05:18:06;12.70;99.90
19561;DHT22;9927;47.792;10.616;2022-10-16T05:20:34;12.80;99.90
19561;DHT22;9927;47.792;10.616;2022-10-16T05:23:01;12.80;99.90
19561;DHT22;9927;47.792;10.616;2022-10-16T05:25:28;12.80;99.90
19561;DHT22;9927;47.792;10.616;2022-10-16T05:27:55;12.70;99.90
19561;DHT22;9927;47.792;10.616;2022-10-16T05:30:22;12.90;99.90
19561;DHT22;9927;47.792;10.616;2022-10-16T05:32:50;12.90;99.90
19561;DHT22;9927;47.792;10.616;2022-10-16T05:35:18;12.90;99.90
19561;DHT22;9927;47.792;10.616;2022-10-16T05:37:46;12.90;99.90
19561;DHT22;9927;47.792;10.616;2022-10-16T05:40:14;12.90;99.90
19561;DHT22;9927;47.792;10.616;2022-10-16T05:42:42;12.90;99.90
19561;DHT22;9927;47.792;10.616;2022-10-16T05:45:10;12.80;99.90
19561;DHT22;9927;47.792;10.616;2022-10-16T05:47:39;12.90;99.90
19561;DHT22;9927;47.792;10.616;2022-10-16T05:50:07;12.90;99.90
19561;DHT22;9927;47.792;10.616;2022-10-16T05:52:34;12.90;99.90
19561;DHT22;9927;47.792;10.616;2022-10-16T05:55:01;12.90;99.90
19561;DHT22;9927;47.792;10.616;2022-10-16T05:57:29;13.00;99.90
19561;DHT22;9927;47.792;10.616;2022-10-16T05:59:56;13.10;99.90
19561;DHT22;9927;47.792;10.616;2022-10-16T06:02:23;13.10;99.90
19561;DHT22;9927;47.792;10.616;2022-10-16T06:04:53;13.20;99.90
19561;DHT22;9927;47.792;10.616;2022-10-16T06:07:21;13.10;99.90
19561;DHT22;9927;47.792;10.616;2022-10-16T06:09:50;13.10;99.90
19561;DHT22;9927;47.792;10.616;2022-10-16T06:12:17;13.20;99.90
19561;DHT22;9927;47.792;10.616;2022-10-16T06:14:45;13.30;99.90
19561;DHT22;9927;47.792;10.616;2022-10-16T06:17:14;13.40;99.90
19561;DHT22;9927;47.792;10.616;2022-10-16T06:19:41;13.40;99.90
19561;DHT22;9927;47.792;10.616;2022-10-16T06:22:08;13.50;99.90
19561;DHT22;9927;47.792;10.616;2022-10-16T06:24:36;13.50;99.90
19561;DHT22;9927;47.792;10.616;2022-10-16T06:27:04;13.70;99.90
19561;DHT22;9927;47.792;10.616;2022-10-16T06:29:31;13.70;99.90
19561;DHT22;9927;47.792;10.616;2022-10-16T06:31:59;13.80;99.90
19561;DHT22;9927;47.792;10.616;2022-10-16T06:34:26;13.80;99.90
19561;DHT22;9927;47.792;10.616;2022-10-16T06:36:53;13.80;99.90
19561;DHT22;9927;47.792;10.616;2022-10-16T06:39:20;13.90;99.90
19561;DHT22;9927;47.792;10.616;2022-10-16T06:41:48;13.90;99.90
19561;DHT22;9927;47.792;10.616;2022-10-16T06:44:15;13.90;99.90
19561;DHT22;9927;47.792;10.616;2022-10-16T06:46:43;14.00;99.90
19561;DHT22;9927;47.792;10.616;2022-10-16T06:49:10;14.20;99.90
19561;DHT22;9927;47.792;10.616;2022-10-16T06:51:37;14.30;99.90
19561;DHT22;9927;47.792;10.616;2022-10-16T06:54:09;14.40;99.90
19561;DHT22;9927;47.792;10.616;2022-10-16T06:56:36;14.50;99.90
19561;DHT22;9927;47.792;10.616;2022-10-16T06:59:04;14.70;99.90
19561;DHT22;9927;47.792;10.616;2022-10-16T07:01:32;14.80;99.90
19561;DHT22;9927;47.792;10.616;2022-10-16T07:04:00;15.00;99.90
19561;DHT22;9927;47.792;10.616;2022-10-16T07:06:31;15.10;99.90
19561;DHT22;9927;47.792;10.616;2022-10-16T07:09:01;15.30;99.90
19561;DHT22;9927;47.792;10.616;2022-10-16T07:11:29;15.40;99.90
19561;DHT22;9927;47.792;10.616;2022-10-16T07:13:56;15.60;99.90
19561;DHT22;9927;47.792;10.616;2022-10-16T07:16:26;15.70;99.90
19561;DHT22;9927;47.792;10.616;2022-10-16T07:18:58;15.90;99.90
19561;DHT22;9927;47.792;10.616;2022-10-16T07:21:29;15.90;99.90
19561;DHT22;9927;47.792;10.616;2022-10-16T07:23:59;16.10;99.90
19561;DHT22;9927;47.792;10.616;2022-10-16T07:26:30;16.20;99.90
19561;DHT22;9927;47.792;10.616;2022-10-16T07:28:57;16.30;99.90
19561;DHT22;9927;47.792;10.616;2022-10-16T07:31:25;16.50;99.90
19561;DHT22;9927;47.792;10.616;2022-10-16T07:33:53;16.70;99.90
19561;DHT22;9927;47.792;10.616;2022-10-16T07:36:21;16.80;99.90
19561;DHT22;9927;47.792;10.616;2022-10-16T07:38:48;16.90;99.90
19561;DHT22;9927;47.792;10.616;2022-10-16T07:41:20;17.00;99.90
19561;DHT22;9927;47.792;10.616;2022-10-16T07:43:52;17.20;99.90
19561;DHT22;9927;47.792;10.616;2022-10-16T07:46:20;17.20;99.90
19561;DHT22;9927;47.792;10.616;2022-10-16T07:48:48;17.40;99.90
19561;DHT22;9927;47.792;10.616;2022-10-16T07:51:18;17.50;99.90
19561;DHT22;9927;47.792;10.616;2022-10-16T07:53:46;17.60;99.90
19561;DHT22;9927;47.792;10.616;2022-10-16T07:56:14;17.60;99.90
19561;DHT22;9927;47.792;10.616;2022-10-16T07:58:42;17.70;99.90
19561;DHT22;9927;47.792;10.616;2022-10-16T08:01:12;17.80;99.90
19561;DHT22;9927;47.792;10.616;2022-10-16T08:03:47;17.80;99.90
19561;DHT22;9927;47.792;10.616;2022-10-16T08:06:15;17.80;99.90
19561;DHT22;9927;47.792;10.616;2022-10-16T08:08:42;17.90;99.90
19561;DHT22;9927;47.792;10.616;2022-10-16T08:11:10;18.10;99.90
19561;DHT22;9927;47.792;10.616;2022-10-16T08:13:37;18.00;99.90
19561;DHT22;9927;47.792;10.616;2022-10-16T08:16:04;18.20;99.90
19561;DHT22;9927;47.792;10.616;2022-10-16T08:18:35;18.10;99.90
19561;DHT22;9927;47.792;10.616;2022-10-16T08:21:03;18.10;99.90
19561;DHT22;9927;47.792;10.616;2022-10-16T08:23:32;18.20;99.90
19561;DHT22;9927;47.792;10.616;2022-10-16T08:26:05;18.20;99.90
19561;DHT22;9927;47.792;10.616;2022-10-16T08:28:33;18.30;99.90
19561;DHT22;9927;47.792;10.616;2022-10-16T08:31:11;18.40;99.90
19561;DHT22;9927;47.792;10.616;2022-10-16T08:33:41;18.40;99.90
19561;DHT22;9927;47.792;10.616;2022-10-16T08:36:10;18.50;99.90
19561;DHT22;9927;47.792;10.616;2022-10-16T08:38:38;18.70;99.90
19561;DHT22;9927;47.792;10.616;2022-10-16T08:42:01;18.80;99.90
19561;DHT22;9927;47.792;10.616;2022-10-16T08:47:00;19.10;99.90
19561;DHT22;9927;47.792;10.616;2022-10-16T08:49:30;19.10;99.90
19561;DHT22;9927;47.792;10.616;2022-10-16T08:51:57;19.20;99.90
19561;DHT22;9927;47.792;10.616;2022-10-16T08:55:00;19.40;99.90
19561;DHT22;9927;47.792;10.616;2022-10-16T08:57:29;19.50;99.90
19561;DHT22;9927;47.792;10.616;2022-10-16T09:00:05;19.60;99.90
19561;DHT22;9927;47.792;10.616;2022-10-16T09:08:25;19.60;99.90
19561;DHT22;9927;47.792;10.616;2022-10-16T09:13:46;20.00;99.90
19561;DHT22;9927;47.792;10.616;2022-10-16T09:21:44;20.40;99.90
19561;DHT22;9927;47.792;10.616;2022-10-16T09:24:31;20.60;99.90
19561;DHT22;9927;47.792;10.616;2022-10-16T09:26:59;20.80;99.90
19561;DHT22;9927;47.792;10.616;2022-10-16T09:29:26;21.00;99.90
19561;DHT22;9927;47.792;10.616;2022-10-16T09:31:54;21.30;99.90
19561;DHT22;9927;47.792;10.616;2022-10-16T09:34:36;21.60;99.90
19561;DHT22;9927;47.792;10.616;2022-10-16T09:37:09;21.70;99.90
19561;DHT22;9927;47.792;10.616;2022-10-16T09:39:52;21.80;99.90
19561;DHT22;9927;47.792;10.616;2022-10-16T09:42:26;21.80;99.90
19561;DHT22;9927;47.792;10.616;2022-10-16T09:44:56;21.90;99.90
19561;DHT22;9927;47.792;10.616;2022-10-16T09:47:26;22.00;99.90
19561;DHT22;9927;47.792;10.616;2022-10-16T09:49:58;22.10;99.90
19561;DHT22;9927;47.792;10.616;2022-10-16T09:52:29;22.30;99.90
19561;DHT22;9927;47.792;10.616;2022-10-16T09:55:02;22.40;99.90
19561;DHT22;9927;47.792;10.616;2022-10-16T09:57:54;22.50;99.90
19561;DHT22;9927;47.792;10.616;2022-10-16T10:00:23;22.40;99.90
19561;DHT22;9927;47.792;10.616;2022-10-16T10:02:51;22.40;99.90
19561;DHT22;9927;47.792;10.616;2022-10-16T10:05:27;22.40;99.90
19561;DHT22;9927;47.792;10.616;2022-10-16T10:08:06;22.40;99.90
19561;DHT22;9927;47.792;10.616;2022-10-16T10:10:41;22.40;99.90
19561;DHT22;9927;47.792;10.616;2022-10-16T10:13:22;22.60;99.90
19561;DHT22;9927;47.792;10.616;2022-10-16T10:15:51;22.60;99.90
19561;DHT22;9927;47.792;10.616;2022-10-16T10:18:22;22.50;99.90
19561;DHT22;9927;47.792;10.616;2022-10-16T10:21:01;22.50;99.90
19561;DHT22;9927;47.792;10.616;2022-10-16T10:23:29;22.60;99.90
19561;DHT22;9927;47.792;10.616;2022-10-16T10:26:19;22.60;99.90
19561;DHT22;9927;47.792;10.616;2022-10-16T10:28:51;22.70;99.90
19561;DHT22;9927;47.792;10.616;2022-10-16T10:31:33;22.80;99.90
19561;DHT22;9927;47.792;10.616;2022-10-16T10:34:51;22.80;99.90
19561;DHT22;9927;47.792;10.616;2022-10-16T10:40:28;22.80;99.90
19561;DHT22;9927;47.792;10.616;2022-10-16T10:45:48;22.70;99.90
19561;DHT22;9927;47.792;10.616;2022-10-16T10:54:35;22.60;99.90
19561;DHT22;9927;47.792;10.616;2022-10-16T11:00:15;22.50;99.20
19561;DHT22;9927;47.792;10.616;2022-10-16T11:02:59;22.50;99.10
19561;DHT22;9927;47.792;10.616;2022-10-16T11:05:50;22.40;99.40
19561;DHT22;9927;47.792;10.616;2022-10-16T11:08:26;22.40;96.70
19561;DHT22;9927;47.792;10.616;2022-10-16T11:11:00;22.40;99.90
19561;DHT22;9927;47.792;10.616;2022-10-16T11:13:38;22.30;96.20
19561;DHT22;9927;47.792;10.616;2022-10-16T11:16:24;22.40;98.60
19561;DHT22;9927;47.792;10.616;2022-10-16T11:21:21;22.40;99.00
19561;DHT22;9927;47.792;10.616;2022-10-16T11:24:04;22.40;97.60
19561;DHT22;9927;47.792;10.616;2022-10-16T11:26:35;22.40;98.20
19561;DHT22;9927;47.792;10.616;2022-10-16T11:29:15;22.40;97.80
19561;DHT22;9927;47.792;10.616;2022-10-16T11:31:52;22.30;97.00
19561;DHT22;9927;47.792;10.616;2022-10-16T11:37:17;22.30;97.00
19561;DHT22;9927;47.792;10.616;2022-10-16T11:39:46;22.40;97.40
19561;DHT22;9927;47.792;10.616;2022-10-16T11:42:41;22.30;96.70
19561;DHT22;9927;47.792;10.616;2022-10-16T11:47:42;22.30;98.30
19561;DHT22;9927;47.792;10.616;2022-10-16T11:50:39;22.40;99.30
19561;DHT22;9927;47.792;10.616;2022-10-16T11:55:54;22.40;97.00
19561;DHT22;9927;47.792;10.616;2022-10-16T12:06:59;22.20;99.50
19561;DHT22;9927;47.792;10.616;2022-10-16T12:09:32;22.20;99.90
19561;DHT22;9927;47.792;10.616;2022-10-16T12:12:00;22.10;99.80
19561;DHT22;9927;47.792;10.616;2022-10-16T12:16:56;22.00;99.90
19561;DHT22;9927;47.792;10.616;2022-10-16T12:19:27;22.00;99.40
19561;DHT22;9927;47.792;10.616;2022-10-16T12:21:57;22.00;99.70
19561;DHT22;9927;47.792;10.616;2022-10-16T12:24:42;22.00;99.70
19561;DHT22;9927;47.792;10.616;2022-10-16T12:27:30;22.00;99.30
19561;DHT22;9927;47.792;10.616;2022-10-16T12:30:02;22.00;99.90
19561;DHT22;9927;47.792;10.616;2022-10-16T12:32:35;22.10;98.50
19561;DHT22;9927;47.792;10.616;2022-10-16T12:35:30;22.10;98.60
19561;DHT22;9927;47.792;10.616;2022-10-16T12:38:07;22.10;99.60
19561;DHT22;9927;47.792;10.616;2022-10-16T12:40:37;22.10;98.40
19561;DHT22;9927;47.792;10.616;2022-10-16T12:46:03;22.20;98.60
19561;DHT22;9927;47.792;10.616;2022-10-16T12:48:31;22.20;99.20
19561;DHT22;9927;47.792;10.616;2022-10-16T12:54:00;22.30;94.40
19561;DHT22;9927;47.792;10.616;2022-10-16T12:56:44;22.40;94.80
19561;DHT22;9927;47.792;10.616;2022-10-16T13:10:41;22.50;95.90
19561;DHT22;9927;47.792;10.616;2022-10-16T13:13:34;22.60;95.70
19561;DHT22;9927;47.792;10.616;2022-10-16T13:16:14;22.60;96.30
19561;DHT22;9927;47.792;10.616;2022-10-16T13:27:07;22.70;93.40
19561;DHT22;9927;47.792;10.616;2022-10-16T13:29:39;22.70;94.20
19561;DHT22;9927;47.792;10.616;2022-10-16T13:32:10;22.80;94.50
19561;DHT22;9927;47.792;10.616;2022-10-16T13:34:47;22.80;92.20
19561;DHT22;9927;47.792;10.616;2022-10-16T13:37:20;22.80;93.40
19561;DHT22;9927;47.792;10.616;2022-10-16T13:39:48;22.80;94.70
19561;DHT22;9927;47.792;10.616;2022-10-16T13:42:27;22.80;93.80
19561;DHT22;9927;47.792;10.616;2022-10-16T13:44:56;22.80;92.00
19561;DHT22;9927;47.792;10.616;2022-10-16T13:47:24;22.80;94.50
19561;DHT22;9927;47.792;10.616;2022-10-16T13:50:14;22.80;94.40
19561;DHT22;9927;47.792;10.616;2022-10-16T13:52:42;22.90;95.70
19561;DHT22;9927;47.792;10.616;2022-10-16T13:55:17;22.80;95.70
19561;DHT22;9927;47.792;10.616;2022-10-16T13:57:45;22.90;94.90
19561;DHT22;9927;47.792;10.616;2022-10-16T14:00:24;22.90;95.60
19561;DHT22;9927;47.792;10.616;2022-10-16T14:03:11;22.90;96.40
19561;DHT22;9927;47.792;10.616;2022-10-16T14:06:03;22.80;95.60
19561;DHT22;9927;47.792;10.616;2022-10-16T14:08:31;22.80;95.50
19561;DHT22;9927;47.792;10.616;2022-10-16T14:11:00;22.70;96.00
19561;DHT22;9927;47.792;10.616;2022-10-16T14:13:38;22.60;94.20
19561;DHT22;9927;47.792;10.616;2022-10-16T14:16:09;22.60;95.90
19561;DHT22;9927;47.792;10.616;2022-10-16T14:18:38;22.60;92.90
19561;DHT22;9927;47.792;10.616;2022-10-16T14:21:14;22.60;93.30
19561;DHT22;9927;47.792;10.616;2022-10-16T14:23:43;22.70;93.40
19561;DHT22;9927;47.792;10.616;2022-10-16T14:28:37;22.70;94.00
19561;DHT22;9927;47.792;10.616;2022-10-16T14:33:46;22.70;93.40
19561;DHT22;9927;47.792;10.616;2022-10-16T14:36:14;22.70;93.70
19561;DHT22;9927;47.792;10.616;2022-10-16T14:38:53;22.70;94.30
19561;DHT22;9927;47.792;10.616;2022-10-16T14:41:22;22.70;95.40
19561;DHT22;9927;47.792;10.616;2022-10-16T14:44:00;22.60;97.60
19561;DHT22;9927;47.792;10.616;2022-10-16T14:46:34;22.40;96.70
19561;DHT22;9927;47.792;10.616;2022-10-16T14:51:39;22.30;94.90
19561;DHT22;9927;47.792;10.616;2022-10-16T14:54:16;22.30;94.20
19561;DHT22;9927;47.792;10.616;2022-10-16T14:56:58;22.30;94.70
19561;DHT22;9927;47.792;10.616;2022-10-16T14:59:36;22.30;94.90
19561;DHT22;9927;47.792;10.616;2022-10-16T15:02:35;22.30;95.60
19561;DHT22;9927;47.792;10.616;2022-10-16T15:05:21;22.30;95.30
19561;DHT22;9927;47.792;10.616;2022-10-16T15:07:49;22.20;96.20
19561;DHT22;9927;47.792;10.616;2022-10-16T15:10:18;22.20;96.60
19561;DHT22;9927;47.792;10.616;2022-10-16T15:12:46;22.20;97.00
19561;DHT22;9927;47.792;10.616;2022-10-16T15:17:50;22.00;97.30
19561;DHT22;9927;47.792;10.616;2022-10-16T15:20:20;22.10;97.70
19561;DHT22;9927;47.792;10.616;2022-10-16T15:22:47;22.00;98.10
19561;DHT22;9927;47.792;10.616;2022-10-16T15:25:38;22.00;98.30
19561;DHT22;9927;47.792;10.616;2022-10-16T15:28:10;21.90;98.90
19561;DHT22;9927;47.792;10.616;2022-10-16T15:30:38;21.90;98.40
19561;DHT22;9927;47.792;10.616;2022-10-16T15:33:12;21.90;98.00
19561;DHT22;9927;47.792;10.616;2022-10-16T15:35:40;21.90;98.20
19561;DHT22;9927;47.792;10.616;2022-10-16T15:38:11;21.80;98.30
19561;DHT22;9927;47.792;10.616;2022-10-16T15:40:40;21.70;98.70
19561;DHT22;9927;47.792;10.616;2022-10-16T15:43:08;21.60;98.70
19561;DHT22;9927;47.792;10.616;2022-10-16T15:45:36;21.60;99.00
19561;DHT22;9927;47.792;10.616;2022-10-16T15:48:03;21.60;98.70
19561;DHT22;9927;47.792;10.616;2022-10-16T15:50:31;21.50;99.10
19561;DHT22;9927;47.792;10.616;2022-10-16T15:52:59;21.40;99.00
19561;DHT22;9927;47.792;10.616;2022-10-16T15:55:26;21.30;99.70
19561;DHT22;9927;47.792;10.616;2022-10-16T15:57:53;21.20;99.90
19561;DHT22;9927;47.792;10.616;2022-10-16T16:00:20;21.00;99.90
19561;DHT22;9927;47.792;10.616;2022-10-16T16:02:53;20.90;99.90
19561;DHT22;9927;47.792;10.616;2022-10-16T16:05:22;20.70;99.90
19561;DHT22;9927;47.792;10.616;2022-10-16T16:07:49;20.60;99.90
19561;DHT22;9927;47.792;10.616;2022-10-16T16:10:17;20.40;99.90
19561;DHT22;9927;47.792;10.616;2022-10-16T16:12:46;20.30;99.90
19561;DHT22;9927;47.792;10.616;2022-10-16T16:15:23;20.20;99.90
19561;DHT22;9927;47.792;10.616;2022-10-16T16:17:50;20.00;99.90
19561;DHT22;9927;47.792;10.616;2022-10-16T16:20:17;19.90;99.90
19561;DHT22;9927;47.792;10.616;2022-10-16T16:22:44;19.80;99.90
19561;DHT22;9927;47.792;10.616;2022-10-16T16:25:12;19.70;99.90
19561;DHT22;9927;47.792;10.616;2022-10-16T16:27:39;19.50;99.90
19561;DHT22;9927;47.792;10.616;2022-10-16T16:30:07;19.30;99.90
19561;DHT22;9927;47.792;10.616;2022-10-16T16:32:35;19.20;99.90
19561;DHT22;9927;47.792;10.616;2022-10-16T16:35:03;19.20;99.90
19561;DHT22;9927;47.792;10.616;2022-10-16T16:37:30;19.10;99.90
19561;DHT22;9927;47.792;10.616;2022-10-16T16:39:57;19.00;99.90
19561;DHT22;9927;47.792;10.616;2022-10-16T16:42:28;18.90;99.90
19561;DHT22;9927;47.792;10.616;2022-10-16T16:44:55;18.70;99.90
19561;DHT22;9927;47.792;10.616;2022-10-16T16:47:22;18.70;99.90
19561;DHT22;9927;47.792;10.616;2022-10-16T16:49:50;18.50;99.90
19561;DHT22;9927;47.792;10.616;2022-10-16T16:52:17;18.40;99.90
19561;DHT22;9927;47.792;10.616;2022-10-16T16:54:45;18.40;99.90
19561;DHT22;9927;47.792;10.616;2022-10-16T16:57:19;18.30;99.90
19561;DHT22;9927;47.792;10.616;2022-10-16T16:59:47;18.20;99.90
19561;DHT22;9927;47.792;10.616;2022-10-16T17:02:16;18.10;99.90
19561;DHT22;9927;47.792;10.616;2022-10-16T17:04:44;17.90;99.90
19561;DHT22;9927;47.792;10.616;2022-10-16T17:07:11;17.80;99.90
19561;DHT22;9927;47.792;10.616;2022-10-16T17:09:38;17.60;99.90
19561;DHT22;9927;47.792;10.616;2022-10-16T17:12:05;17.50;99.90
19561;DHT22;9927;47.792;10.616;2022-10-16T17:14:32;17.40;99.90
19561;DHT22;9927;47.792;10.616;2022-10-16T17:17:00;17.40;99.90
19561;DHT22;9927;47.792;10.616;2022-10-16T17:19:27;17.30;99.90
19561;DHT22;9927;47.792;10.616;2022-10-16T17:21:54;17.20;99.90
19561;DHT22;9927;47.792;10.616;2022-10-16T17:24:21;17.20;99.90
19561;DHT22;9927;47.792;10.616;2022-10-16T17:26:49;17.10;99.90
19561;DHT22;9927;47.792;10.616;2022-10-16T17:29:16;17.00;99.90
19561;DHT22;9927;47.792;10.616;2022-10-16T17:31:45;17.00;99.90
19561;DHT22;9927;47.792;10.616;2022-10-16T17:34:12;16.90;99.90
19561;DHT22;9927;47.792;10.616;2022-10-16T17:36:40;16.80;99.90
19561;DHT22;9927;47.792;10.616;2022-10-16T17:39:14;16.80;99.90
19561;DHT22;9927;47.792;10.616;2022-10-16T17:41:44;16.80;99.90
19561;DHT22;9927;47.792;10.616;2022-10-16T17:44:12;16.70;99.90
19561;DHT22;9927;47.792;10.616;2022-10-16T17:46:52;16.70;99.90
19561;DHT22;9927;47.792;10.616;2022-10-16T17:49:20;16.60;99.90
19561;DHT22;9927;47.792;10.616;2022-10-16T17:51:51;16.50;99.90
19561;DHT22;9927;47.792;10.616;2022-10-16T17:54:19;16.50;99.90
19561;DHT22;9927;47.792;10.616;2022-10-16T17:56:46;16.40;99.90
19561;DHT22;9927;47.792;10.616;2022-10-16T17:59:14;16.30;99.90
19561;DHT22;9927;47.792;10.616;2022-10-16T18:01:42;16.30;99.90
19561;DHT22;9927;47.792;10.616;2022-10-16T18:04:14;16.20;99.90
19561;DHT22;9927;47.792;10.616;2022-10-16T18:06:43;16.10;99.90
19561;DHT22;9927;47.792;10.616;2022-10-16T18:09:12;16.00;99.90
19561;DHT22;9927;47.792;10.616;2022-10-16T18:11:40;16.00;99.90
19561;DHT22;9927;47.792;10.616;2022-10-16T18:14:10;15.90;99.90
19561;DHT22;9927;47.792;10.616;2022-10-16T18:16:38;15.90;99.90
19561;DHT22;9927;47.792;10.616;2022-10-16T18:19:05;15.90;99.90
19561;DHT22;9927;47.792;10.616;2022-10-16T18:21:33;15.90;99.90
19561;DHT22;9927;47.792;10.616;2022-10-16T18:24:00;15.70;99.90
19561;DHT22;9927;47.792;10.616;2022-10-16T18:26:27;15.70;99.90
19561;DHT22;9927;47.792;10.616;2022-10-16T18:28:56;15.60;99.90
19561;DHT22;9927;47.792;10.616;2022-10-16T18:31:24;15.50;99.90
19561;DHT22;9927;47.792;10.616;2022-10-16T18:33:53;15.40;99.90
19561;DHT22;9927;47.792;10.616;2022-10-16T18:36:27;15.40;99.90
19561;DHT22;9927;47.792;10.616;2022-10-16T18:39:04;15.40;99.90
19561;DHT22;9927;47.792;10.616;2022-10-16T18:41:41;15.30;99.90
19561;DHT22;9927;47.792;10.616;2022-10-16T18:44:10;15.30;99.90
19561;DHT22;9927;47.792;10.616;2022-10-16T18:46:39;15.20;99.90
19561;DHT22;9927;47.792;10.616;2022-10-16T18:49:06;15.20;99.90
19561;DHT22;9927;47.792;10.616;2022-10-16T18:51:37;15.10;99.90
19561;DHT22;9927;47.792;10.616;2022-10-16T18:54:07;15.10;99.90
19561;DHT22;9927;47.792;10.616;2022-10-16T18:56:35;15.00;99.90
19561;DHT22;9927;47.792;10.616;2022-10-16T18:59:03;15.00;99.90
19561;DHT22;9927;47.792;10.616;2022-10-16T19:01:32;14.90;99.90
19561;DHT22;9927;47.792;10.616;2022-10-16T19:04:12;14.80;99.90
19561;DHT22;9927;47.792;10.616;2022-10-16T19:06:42;14.80;99.90
19561;DHT22;9927;47.792;10.616;2022-10-16T19:09:10;14.70;99.90
19561;DHT22;9927;47.792;10.616;2022-10-16T19:11:38;14.70;99.90
19561;DHT22;9927;47.792;10.616;2022-10-16T19:14:09;14.70;99.90
19561;DHT22;9927;47.792;10.616;2022-10-16T19:16:37;14.70;99.90
19561;DHT22;9927;47.792;10.616;2022-10-16T19:19:06;14.70;99.90
19561;DHT22;9927;47.792;10.616;2022-10-16T19:21:36;14.70;99.90
19561;DHT22;9927;47.792;10.616;2022-10-16T19:24:06;14.70;99.90
19561;DHT22;9927;47.792;10.616;2022-10-16T19:26:34;14.60;99.90
19561;DHT22;9927;47.792;10.616;2022-10-16T19:29:07;14.60;99.90
19561;DHT22;9927;47.792;10.616;2022-10-16T19:31:35;14.60;99.90
19561;DHT22;9927;47.792;10.616;2022-10-16T19:34:03;14.60;99.90
19561;DHT22;9927;47.792;10.616;2022-10-16T19:36:32;14.60;99.90
19561;DHT22;9927;47.792;10.616;2022-10-16T19:39:03;14.50;99.90
19561;DHT22;9927;47.792;10.616;2022-10-16T19:41:30;14.50;99.90
19561;DHT22;9927;47.792;10.616;2022-10-16T19:44:02;14.50;99.90
19561;DHT22;9927;47.792;10.616;2022-10-16T19:46:30;14.50;99.90
19561;DHT22;9927;47.792;10.616;2022-10-16T19:49:00;14.50;99.90
19561;DHT22;9927;47.792;10.616;2022-10-16T19:51:28;14.40;99.90
19561;DHT22;9927;47.792;10.616;2022-10-16T19:53:58;14.40;99.90
19561;DHT22;9927;47.792;10.616;2022-10-16T19:56:27;14.40;99.90
19561;DHT22;9927;47.792;10.616;2022-10-16T19:58:56;14.40;99.90
19561;DHT22;9927;47.792;10.616;2022-10-16T20:01:26;14.30;99.90
19561;DHT22;9927;47.792;10.616;2022-10-16T20:03:53;14.30;99.90
19561;DHT22;9927;47.792;10.616;2022-10-16T20:06:21;14.20;99.90
19561;DHT22;9927;47.792;10.616;2022-10-16T20:08:50;14.20;99.90
19561;DHT22;9927;47.792;10.616;2022-10-16T20:11:20;14.10;99.90
19561;DHT22;9927;47.792;10.616;2022-10-16T20:13:48;14.00;99.90
19561;DHT22;9927;47.792;10.616;2022-10-16T20:16:16;13.90;99.90
19561;DHT22;9927;47.792;10.616;2022-10-16T20:18:46;13.90;99.90
19561;DHT22;9927;47.792;10.616;2022-10-16T20:21:19;13.90;99.90
19561;DHT22;9927;47.792;10.616;2022-10-16T20:23:46;13.90;99.90